sensor_id;sensor_type;location;lat;lon;timestamp;P1;durP1;ratioP1;P2;durP2;ratioP2
53927;SDS011;39837;47.630;18.822;2022-07-23T00:01:41;4.43;;;3.00;;
53927;SDS011;39837;47.630;18.822;2022-07-23T00:04:25;2.65;;;2.55;;
53927;SDS011;39837;47.630;18.822;2022-07-23T00:07:10;3.17;;;2.88;;
53927;SDS011;39837;47.630;18.822;2022-07-23T00:09:54;3.63;;;3.28;;
53927;SDS011;39837;47.630;18.822;2022-07-23T00:12:38;3.35;;;3.00;;
53927;SDS011;39837;47.630;18.822;2022-07-23T00:15:22;3.10;;;2.80;;
53927;SDS011;39837;47.630;18.822;2022-07-23T00:18:06;2.95;;;2.72;;
53927;SDS011;39837;47.630;18.822;2022-07-23T00:20:51;3.13;;;2.92;;
53927;SDS011;39837;47.630;18.822;2022-07-23T00:23:34;2.97;;;2.35;;
53927;SDS011;39837;47.630;18.822;2022-07-23T00:26:19;2.60;;;2.45;;
53927;SDS011;39837;47.630;18.822;2022-07-23T00:29:02;2.83;;;2.60;;
53927;SDS011;39837;47.630;18.822;2022-07-23T00:31:46;3.20;;;2.83;;
53927;SDS011;39837;47.630;18.822;2022-07-23T00:34:30;5.75;;;2.80;;
53927;SDS011;39837;47.630;18.822;2022-07-23T00:37:15;3.20;;;2.92;;
53927;SDS011;39837;47.630;18.822;2022-07-23T00:39:58;2.60;;;2.50;;
53927;SDS011;39837;47.630;18.822;2022-07-23T00:42:43;3.50;;;3.20;;
53927;SDS011;39837;47.630;18.822;2022-07-23T00:45:27;4.60;;;3.13;;
53927;SDS011;39837;47.630;18.822;2022-07-23T00:48:11;4.10;;;2.90;;
53927;SDS011;39837;47.630;18.822;2022-07-23T00:50:55;2.80;;;2.60;;
53927;SDS011;39837;47.630;18.822;2022-07-23T00:53:40;3.65;;;3.35;;
53927;SDS011;39837;47.630;18.822;2022-07-23T00:56:25;3.67;;;3.28;;
53927;SDS011;39837;47.630;18.822;2022-07-23T00:59:09;3.00;;;2.80;;
53927;SDS011;39837;47.630;18.822;2022-07-23T01:01:53;3.50;;;3.08;;
53927;SDS011;39837;47.630;18.822;2022-07-23T01:04:37;5.50;;;3.25;;
53927;SDS011;39837;47.630;18.822;2022-07-23T01:07:21;8.45;;;3.25;;
53927;SDS011;39837;47.630;18.822;2022-07-23T01:10:05;3.38;;;2.78;;
53927;SDS011;39837;47.630;18.822;2022-07-23T01:13:10;2.92;;;2.72;;
53927;SDS011;39837;47.630;18.822;2022-07-23T01:15:54;3.45;;;3.15;;
53927;SDS011;39837;47.630;18.822;2022-07-23T01:18:38;3.33;;;3.00;;
53927;SDS011;39837;47.630;18.822;2022-07-23T01:21:22;4.78;;;3.15;;
53927;SDS011;39837;47.630;18.822;2022-07-23T01:24:06;3.70;;;3.40;;
53927;SDS011;39837;47.630;18.822;2022-07-23T01:26:50;10.25;;;3.35;;
53927;SDS011;39837;47.630;18.822;2022-07-23T01:29:34;2.63;;;2.42;;
53927;SDS011;39837;47.630;18.822;2022-07-23T01:32:18;3.05;;;2.85;;
53927;SDS011;39837;47.630;18.822;2022-07-23T01:35:02;4.65;;;3.05;;
53927;SDS011;39837;47.630;18.822;2022-07-23T01:37:47;4.10;;;3.70;;
53927;SDS011;39837;47.630;18.822;2022-07-23T01:40:31;3.35;;;3.15;;
53927;SDS011;39837;47.630;18.822;2022-07-23T01:43:15;4.43;;;3.25;;
53927;SDS011;39837;47.630;18.822;2022-07-23T01:45:59;4.22;;;3.22;;
53927;SDS011;39837;47.630;18.822;2022-07-23T01:48:44;5.28;;;3.25;;
53927;SDS011;39837;47.630;18.822;2022-07-23T01:51:28;3.15;;;2.95;;
53927;SDS011;39837;47.630;18.822;2022-07-23T01:54:12;3.13;;;2.90;;
53927;SDS011;39837;47.630;18.822;2022-07-23T01:56:56;3.60;;;3.10;;
53927;SDS011;39837;47.630;18.822;2022-07-23T01:59:40;2.42;;;2.33;;
53927;SDS011;39837;47.630;18.822;2022-07-23T02:02:24;3.35;;;3.13;;
53927;SDS011;39837;47.630;18.822;2022-07-23T02:05:08;3.78;;;3.47;;
53927;SDS011;39837;47.630;18.822;2022-07-23T02:07:52;3.67;;;3.35;;
53927;SDS011;39837;47.630;18.822;2022-07-23T02:10:38;8.25;;;3.50;;
53927;SDS011;39837;47.630;18.822;2022-07-23T02:13:22;3.50;;;3.30;;
53927;SDS011;39837;47.630;18.822;2022-07-23T02:16:06;4.00;;;3.35;;
53927;SDS011;39837;47.630;18.822;2022-07-23T02:18:50;4.22;;;3.55;;
53927;SDS011;39837;47.630;18.822;2022-07-23T02:21:34;3.38;;;3.17;;
53927;SDS011;39837;47.630;18.822;2022-07-23T02:24:19;6.38;;;2.78;;
53927;SDS011;39837;47.630;18.822;2022-07-23T02:27:03;5.18;;;3.28;;
53927;SDS011;39837;47.630;18.822;2022-07-23T02:29:47;3.53;;;3.22;;
53927;SDS011;39837;47.630;18.822;2022-07-23T02:32:31;3.67;;;3.47;;
53927;SDS011;39837;47.630;18.822;2022-07-23T02:35:15;5.00;;;3.67;;
53927;SDS011;39837;47.630;18.822;2022-07-23T02:37:59;3.72;;;3.42;;
53927;SDS011;39837;47.630;18.822;2022-07-23T02:40:43;3.78;;;3.33;;
53927;SDS011;39837;47.630;18.822;2022-07-23T02:43:27;4.63;;;3.17;;
53927;SDS011;39837;47.630;18.822;2022-07-23T02:46:11;3.20;;;3.00;;
53927;SDS011;39837;47.630;18.822;2022-07-23T02:48:55;3.65;;;3.38;;
53927;SDS011;39837;47.630;18.822;2022-07-23T02:51:39;3.90;;;3.53;;
53927;SDS011;39837;47.630;18.822;2022-07-23T02:54:23;3.42;;;3.13;;
53927;SDS011;39837;47.630;18.822;2022-07-23T02:57:07;4.15;;;3.22;;
53927;SDS011;39837;47.630;18.822;2022-07-23T02:59:51;10.15;;;3.05;;
53927;SDS011;39837;47.630;18.822;2022-07-23T03:02:35;3.42;;;3.13;;
53927;SDS011;39837;47.630;18.822;2022-07-23T03:05:19;7.25;;;3.78;;
53927;SDS011;39837;47.630;18.822;2022-07-23T03:08:03;5.97;;;3.17;;
53927;SDS011;39837;47.630;18.822;2022-07-23T03:10:47;9.95;;;3.22;;
53927;SDS011;39837;47.630;18.822;2022-07-23T03:13:31;3.25;;;3.00;;
53927;SDS011;39837;47.630;18.822;2022-07-23T03:16:15;7.28;;;3.15;;
53927;SDS011;39837;47.630;18.822;2022-07-23T03:18:59;3.55;;;3.05;;
53927;SDS011;39837;47.630;18.822;2022-07-23T03:21:43;3.45;;;3.25;;
53927;SDS011;39837;47.630;18.822;2022-07-23T03:24:27;5.53;;;3.33;;
53927;SDS011;39837;47.630;18.822;2022-07-23T03:27:31;3.15;;;2.95;;
53927;SDS011;39837;47.630;18.822;2022-07-23T03:30:15;4.03;;;3.72;;
53927;SDS011;39837;47.630;18.822;2022-07-23T03:32:59;7.70;;;2.92;;
53927;SDS011;39837;47.630;18.822;2022-07-23T03:35:43;3.90;;;3.60;;
53927;SDS011;39837;47.630;18.822;2022-07-23T03:38:28;4.88;;;3.80;;
53927;SDS011;39837;47.630;18.822;2022-07-23T03:41:12;3.25;;;2.92;;
53927;SDS011;39837;47.630;18.822;2022-07-23T03:43:56;3.17;;;2.95;;
53927;SDS011;39837;47.630;18.822;2022-07-23T03:46:40;3.55;;;3.30;;
53927;SDS011;39837;47.630;18.822;2022-07-23T03:49:24;3.15;;;3.05;;
53927;SDS011;39837;47.630;18.822;2022-07-23T03:52:09;6.55;;;3.50;;
53927;SDS011;39837;47.630;18.822;2022-07-23T03:54:53;3.95;;;3.42;;
53927;SDS011;39837;47.630;18.822;2022-07-23T03:57:37;5.05;;;2.78;;
53927;SDS011;39837;47.630;18.822;2022-07-23T04:00:21;5.15;;;2.95;;
53927;SDS011;39837;47.630;18.822;2022-07-23T04:03:05;2.85;;;2.75;;
53927;SDS011;39837;47.630;18.822;2022-07-23T04:05:49;6.45;;;3.40;;
53927;SDS011;39837;47.630;18.822;2022-07-23T04:08:33;3.00;;;2.78;;
53927;SDS011;39837;47.630;18.822;2022-07-23T04:11:17;2.55;;;2.35;;
53927;SDS011;39837;47.630;18.822;2022-07-23T04:14:01;3.20;;;3.00;;
53927;SDS011;39837;47.630;18.822;2022-07-23T04:16:45;11.90;;;2.72;;
53927;SDS011;39837;47.630;18.822;2022-07-23T04:19:29;3.53;;;3.25;;
53927;SDS011;39837;47.630;18.822;2022-07-23T04:22:14;3.13;;;2.92;;
53927;SDS011;39837;47.630;18.822;2022-07-23T04:24:57;3.17;;;2.95;;
53927;SDS011;39837;47.630;18.822;2022-07-23T04:27:42;2.92;;;2.72;;
53927;SDS011;39837;47.630;18.822;2022-07-23T04:30:26;4.05;;;3.15;;
53927;SDS011;39837;47.630;18.822;2022-07-23T04:33:10;4.55;;;3.53;;
53927;SDS011;39837;47.630;18.822;2022-07-23T04:35:54;4.10;;;2.90;;
53927;SDS011;39837;47.630;18.822;2022-07-23T04:38:38;3.38;;;3.08;;
53927;SDS011;39837;47.630;18.822;2022-07-23T04:41:23;2.67;;;2.47;;
53927;SDS011;39837;47.630;18.822;2022-07-23T04:44:07;3.80;;;3.10;;
53927;SDS011;39837;47.630;18.822;2022-07-23T04:46:51;4.18;;;2.60;;
53927;SDS011;39837;47.630;18.822;2022-07-23T04:49:35;11.68;;;3.08;;
53927;SDS011;39837;47.630;18.822;2022-07-23T04:52:18;4.38;;;3.05;;
53927;SDS011;39837;47.630;18.822;2022-07-23T04:55:03;7.88;;;2.60;;
53927;SDS011;39837;47.630;18.822;2022-07-23T04:57:47;2.95;;;2.75;;
53927;SDS011;39837;47.630;18.822;2022-07-23T05:00:31;3.08;;;2.55;;
53927;SDS011;39837;47.630;18.822;2022-07-23T05:03:15;5.00;;;2.65;;
53927;SDS011;39837;47.630;18.822;2022-07-23T05:06:00;3.03;;;2.83;;
53927;SDS011;39837;47.630;18.822;2022-07-23T05:08:45;3.70;;;3.40;;
53927;SDS011;39837;47.630;18.822;2022-07-23T05:11:28;3.40;;;3.08;;
53927;SDS011;39837;47.630;18.822;2022-07-23T05:14:12;5.18;;;2.92;;
53927;SDS011;39837;47.630;18.822;2022-07-23T05:16:57;4.03;;;3.38;;
53927;SDS011;39837;47.630;18.822;2022-07-23T05:19:41;3.03;;;2.78;;
53927;SDS011;39837;47.630;18.822;2022-07-23T05:22:25;2.55;;;2.35;;
53927;SDS011;39837;47.630;18.822;2022-07-23T05:25:10;2.38;;;2.28;;
53927;SDS011;39837;47.630;18.822;2022-07-23T05:27:54;5.78;;;2.55;;
53927;SDS011;39837;47.630;18.822;2022-07-23T05:30:38;5.53;;;2.33;;
53927;SDS011;39837;47.630;18.822;2022-07-23T05:33:22;3.92;;;3.58;;
53927;SDS011;39837;47.630;18.822;2022-07-23T05:36:06;9.48;;;3.53;;
53927;SDS011;39837;47.630;18.822;2022-07-23T05:38:50;8.57;;;3.75;;
53927;SDS011;39837;47.630;18.822;2022-07-23T05:41:34;5.50;;;2.78;;
53927;SDS011;39837;47.630;18.822;2022-07-23T05:44:18;3.50;;;2.95;;
53927;SDS011;39837;47.630;18.822;2022-07-23T05:47:02;3.33;;;2.85;;
53927;SDS011;39837;47.630;18.822;2022-07-23T05:49:46;5.70;;;2.85;;
53927;SDS011;39837;47.630;18.822;2022-07-23T05:52:30;17.98;;;3.60;;
53927;SDS011;39837;47.630;18.822;2022-07-23T05:55:14;13.82;;;2.65;;
53927;SDS011;39837;47.630;18.822;2022-07-23T05:57:58;6.85;;;2.95;;
53927;SDS011;39837;47.630;18.822;2022-07-23T06:00:42;17.07;;;3.00;;
53927;SDS011;39837;47.630;18.822;2022-07-23T06:03:26;4.82;;;2.67;;
53927;SDS011;39837;47.630;18.822;2022-07-23T06:06:10;3.28;;;2.97;;
53927;SDS011;39837;47.630;18.822;2022-07-23T06:08:54;3.70;;;2.60;;
53927;SDS011;39837;47.630;18.822;2022-07-23T06:11:39;7.95;;;4.25;;
53927;SDS011;39837;47.630;18.822;2022-07-23T06:14:23;8.30;;;3.38;;
53927;SDS011;39837;47.630;18.822;2022-07-23T06:17:07;4.82;;;2.55;;
53927;SDS011;39837;47.630;18.822;2022-07-23T06:19:52;2.45;;;2.28;;
53927;SDS011;39837;47.630;18.822;2022-07-23T06:22:37;4.05;;;2.40;;
53927;SDS011;39837;47.630;18.822;2022-07-23T06:25:22;5.35;;;2.00;;
53927;SDS011;39837;47.630;18.822;2022-07-23T06:28:06;2.60;;;2.40;;
53927;SDS011;39837;47.630;18.822;2022-07-23T06:30:50;3.65;;;2.38;;
53927;SDS011;39837;47.630;18.822;2022-07-23T06:33:34;1.60;;;1.60;;
53927;SDS011;39837;47.630;18.822;2022-07-23T06:36:18;13.18;;;2.67;;
53927;SDS011;39837;47.630;18.822;2022-07-23T06:39:02;2.63;;;1.65;;
53927;SDS011;39837;47.630;18.822;2022-07-23T06:44:31;2.80;;;2.40;;
53927;SDS011;39837;47.630;18.822;2022-07-23T06:47:16;18.70;;;3.42;;
53927;SDS011;39837;47.630;18.822;2022-07-23T06:52:44;2.22;;;2.10;;
53927;SDS011;39837;47.630;18.822;2022-07-23T06:55:28;12.75;;;2.67;;
53927;SDS011;39837;47.630;18.822;2022-07-23T06:58:12;2.42;;;2.10;;
53927;SDS011;39837;47.630;18.822;2022-07-23T07:00:57;2.17;;;2.08;;
53927;SDS011;39837;47.630;18.822;2022-07-23T07:03:41;4.90;;;2.80;;
53927;SDS011;39837;47.630;18.822;2022-07-23T07:09:09;12.73;;;2.27;;
53927;SDS011;39837;47.630;18.822;2022-07-23T07:11:53;6.63;;;2.33;;
53927;SDS011;39837;47.630;18.822;2022-07-23T07:14:38;4.65;;;1.90;;
53927;SDS011;39837;47.630;18.822;2022-07-23T07:17:22;2.58;;;1.75;;
53927;SDS011;39837;47.630;18.822;2022-07-23T07:20:06;8.07;;;3.47;;
53927;SDS011;39837;47.630;18.822;2022-07-23T07:22:50;4.20;;;1.70;;
53927;SDS011;39837;47.630;18.822;2022-07-23T07:25:35;2.28;;;1.83;;
53927;SDS011;39837;47.630;18.822;2022-07-23T07:28:19;2.25;;;2.15;;
53927;SDS011;39837;47.630;18.822;2022-07-23T07:31:03;3.42;;;1.60;;
53927;SDS011;39837;47.630;18.822;2022-07-23T07:33:47;11.52;;;2.05;;
53927;SDS011;39837;47.630;18.822;2022-07-23T07:36:31;2.63;;;1.30;;
53927;SDS011;39837;47.630;18.822;2022-07-23T07:39:16;1.15;;;1.15;;
53927;SDS011;39837;47.630;18.822;2022-07-23T07:42:00;1.00;;;1.00;;
53927;SDS011;39837;47.630;18.822;2022-07-23T07:44:44;1.88;;;1.30;;
53927;SDS011;39837;47.630;18.822;2022-07-23T07:47:28;2.05;;;1.48;;
53927;SDS011;39837;47.630;18.822;2022-07-23T07:50:12;6.13;;;1.40;;
53927;SDS011;39837;47.630;18.822;2022-07-23T07:52:57;2.17;;;1.35;;
53927;SDS011;39837;47.630;18.822;2022-07-23T07:55:40;8.38;;;1.60;;
53927;SDS011;39837;47.630;18.822;2022-07-23T07:58:24;6.28;;;1.33;;
53927;SDS011;39837;47.630;18.822;2022-07-23T08:01:08;1.42;;;1.33;;
53927;SDS011;39837;47.630;18.822;2022-07-23T08:03:52;1.60;;;1.30;;
53927;SDS011;39837;47.630;18.822;2022-07-23T08:06:36;5.38;;;1.55;;
53927;SDS011;39837;47.630;18.822;2022-07-23T08:09:21;1.30;;;1.20;;
53927;SDS011;39837;47.630;18.822;2022-07-23T08:12:05;1.42;;;1.40;;
53927;SDS011;39837;47.630;18.822;2022-07-23T08:14:49;1.13;;;1.08;;
53927;SDS011;39837;47.630;18.822;2022-07-23T08:17:34;4.60;;;1.48;;
53927;SDS011;39837;47.630;18.822;2022-07-23T08:20:19;1.33;;;1.20;;
53927;SDS011;39837;47.630;18.822;2022-07-23T08:23:05;1.33;;;1.20;;
53927;SDS011;39837;47.630;18.822;2022-07-23T08:25:50;1.48;;;1.38;;
53927;SDS011;39837;47.630;18.822;2022-07-23T08:28:34;9.00;;;1.35;;
53927;SDS011;39837;47.630;18.822;2022-07-23T08:31:18;1.08;;;1.08;;
53927;SDS011;39837;47.630;18.822;2022-07-23T08:34:02;1.02;;;1.02;;
53927;SDS011;39837;47.630;18.822;2022-07-23T08:36:47;1.05;;;1.05;;
53927;SDS011;39837;47.630;18.822;2022-07-23T08:39:31;1.27;;;1.17;;
53927;SDS011;39837;47.630;18.822;2022-07-23T08:42:15;2.33;;;2.15;;
53927;SDS011;39837;47.630;18.822;2022-07-23T08:44:59;0.80;;;0.80;;
53927;SDS011;39837;47.630;18.822;2022-07-23T08:47:44;1.65;;;1.20;;
53927;SDS011;39837;47.630;18.822;2022-07-23T08:50:29;3.20;;;1.60;;
53927;SDS011;39837;47.630;18.822;2022-07-23T08:53:13;1.73;;;1.10;;
53927;SDS011;39837;47.630;18.822;2022-07-23T08:55:59;2.97;;;0.93;;
53927;SDS011;39837;47.630;18.822;2022-07-23T08:58:45;1.08;;;1.08;;
53927;SDS011;39837;47.630;18.822;2022-07-23T09:01:29;2.10;;;1.00;;
53927;SDS011;39837;47.630;18.822;2022-07-23T09:04:15;1.15;;;1.15;;
53927;SDS011;39837;47.630;18.822;2022-07-23T09:06:59;2.70;;;1.00;;
53927;SDS011;39837;47.630;18.822;2022-07-23T09:09:45;1.10;;;1.10;;
53927;SDS011;39837;47.630;18.822;2022-07-23T09:12:29;1.23;;;1.23;;
53927;SDS011;39837;47.630;18.822;2022-07-23T09:15:13;1.48;;;1.38;;
53927;SDS011;39837;47.630;18.822;2022-07-23T09:17:57;5.95;;;1.48;;
53927;SDS011;39837;47.630;18.822;2022-07-23T09:20:41;1.30;;;1.30;;
53927;SDS011;39837;47.630;18.822;2022-07-23T09:23:36;0.82;;;0.80;;
53927;SDS011;39837;47.630;18.822;2022-07-23T09:29:17;0.90;;;0.90;;
53927;SDS011;39837;47.630;18.822;2022-07-23T09:32:09;1.17;;;1.15;;
53927;SDS011;39837;47.630;18.822;2022-07-23T09:34:57;1.08;;;1.08;;
53927;SDS011;39837;47.630;18.822;2022-07-23T09:37:41;2.55;;;0.88;;
53927;SDS011;39837;47.630;18.822;2022-07-23T09:40:44;1.43;;;1.17;;
53927;SDS011;39837;47.630;18.822;2022-07-23T09:43:28;3.80;;;1.30;;
53927;SDS011;39837;47.630;18.822;2022-07-23T09:46:16;0.80;;;0.80;;
53927;SDS011;39837;47.630;18.822;2022-07-23T09:49:14;1.17;;;1.15;;
53927;SDS011;39837;47.630;18.822;2022-07-23T09:52:05;1.60;;;1.50;;
53927;SDS011;39837;47.630;18.822;2022-07-23T09:54:50;9.82;;;1.33;;
53927;SDS011;39837;47.630;18.822;2022-07-23T09:57:45;6.43;;;1.27;;
53927;SDS011;39837;47.630;18.822;2022-07-23T10:00:34;3.78;;;1.60;;
53927;SDS011;39837;47.630;18.822;2022-07-23T10:03:18;2.90;;;1.52;;
53927;SDS011;39837;47.630;18.822;2022-07-23T10:06:03;3.33;;;2.13;;
53927;SDS011;39837;47.630;18.822;2022-07-23T10:08:47;1.48;;;1.40;;
53927;SDS011;39837;47.630;18.822;2022-07-23T10:11:32;4.13;;;1.60;;
53927;SDS011;39837;47.630;18.822;2022-07-23T10:14:17;4.13;;;2.00;;
53927;SDS011;39837;47.630;18.822;2022-07-23T10:17:02;1.85;;;1.75;;
53927;SDS011;39837;47.630;18.822;2022-07-23T10:19:47;1.80;;;1.70;;
53927;SDS011;39837;47.630;18.822;2022-07-23T10:22:35;2.45;;;1.77;;
53927;SDS011;39837;47.630;18.822;2022-07-23T10:25:24;1.70;;;1.65;;
53927;SDS011;39837;47.630;18.822;2022-07-23T10:37:39;1.90;;;1.70;;
53927;SDS011;39837;47.630;18.822;2022-07-23T10:40:25;1.85;;;1.73;;
53927;SDS011;39837;47.630;18.822;2022-07-23T10:43:13;1.80;;;1.42;;
53927;SDS011;39837;47.630;18.822;2022-07-23T10:49:26;1.95;;;1.85;;
53927;SDS011;39837;47.630;18.822;2022-07-23T10:57:53;2.22;;;1.60;;
53927;SDS011;39837;47.630;18.822;2022-07-23T11:00:37;1.98;;;1.88;;
53927;SDS011;39837;47.630;18.822;2022-07-23T11:03:55;1.42;;;1.33;;
53927;SDS011;39837;47.630;18.822;2022-07-23T11:09:40;1.77;;;1.52;;
53927;SDS011;39837;47.630;18.822;2022-07-23T11:15:13;7.53;;;1.88;;
53927;SDS011;39837;47.630;18.822;2022-07-23T11:17:59;1.83;;;1.75;;
53927;SDS011;39837;47.630;18.822;2022-07-23T11:20:44;8.30;;;1.92;;
53927;SDS011;39837;47.630;18.822;2022-07-23T11:23:57;14.85;;;3.03;;
53927;SDS011;39837;47.630;18.822;2022-07-23T11:26:48;1.85;;;1.75;;
53927;SDS011;39837;47.630;18.822;2022-07-23T11:29:43;1.70;;;1.70;;
53927;SDS011;39837;47.630;18.822;2022-07-23T11:32:29;3.35;;;2.00;;
53927;SDS011;39837;47.630;18.822;2022-07-23T11:38:19;1.73;;;1.70;;
53927;SDS011;39837;47.630;18.822;2022-07-23T11:41:06;2.05;;;1.95;;
53927;SDS011;39837;47.630;18.822;2022-07-23T11:43:51;3.10;;;1.85;;
53927;SDS011;39837;47.630;18.822;2022-07-23T11:46:35;2.35;;;2.25;;
53927;SDS011;39837;47.630;18.822;2022-07-23T11:49:19;2.03;;;1.92;;
53927;SDS011;39837;47.630;18.822;2022-07-23T11:52:09;2.58;;;2.05;;
53927;SDS011;39837;47.630;18.822;2022-07-23T11:54:58;2.72;;;2.00;;
53927;SDS011;39837;47.630;18.822;2022-07-23T11:57:43;5.95;;;2.63;;
53927;SDS011;39837;47.630;18.822;2022-07-23T12:00:28;3.75;;;2.05;;
53927;SDS011;39837;47.630;18.822;2022-07-23T12:03:13;6.20;;;1.83;;
53927;SDS011;39837;47.630;18.822;2022-07-23T12:08:43;1.98;;;1.83;;
53927;SDS011;39837;47.630;18.822;2022-07-23T12:11:27;2.45;;;2.17;;
53927;SDS011;39837;47.630;18.822;2022-07-23T12:14:11;2.28;;;2.10;;
53927;SDS011;39837;47.630;18.822;2022-07-23T12:17:11;1.83;;;1.73;;
53927;SDS011;39837;47.630;18.822;2022-07-23T12:19:55;2.28;;;2.17;;
53927;SDS011;39837;47.630;18.822;2022-07-23T12:22:42;16.88;;;2.28;;
53927;SDS011;39837;47.630;18.822;2022-07-23T12:25:29;10.75;;;2.60;;
53927;SDS011;39837;47.630;18.822;2022-07-23T12:28:15;2.97;;;1.80;;
53927;SDS011;39837;47.630;18.822;2022-07-23T12:31:04;2.25;;;2.05;;
53927;SDS011;39837;47.630;18.822;2022-07-23T12:33:48;7.80;;;2.38;;
53927;SDS011;39837;47.630;18.822;2022-07-23T12:36:37;2.45;;;2.25;;
53927;SDS011;39837;47.630;18.822;2022-07-23T12:39:31;4.82;;;2.08;;
53927;SDS011;39837;47.630;18.822;2022-07-23T12:42:16;4.57;;;2.05;;
53927;SDS011;39837;47.630;18.822;2022-07-23T12:50:43;1.95;;;1.85;;
53927;SDS011;39837;47.630;18.822;2022-07-23T12:53:43;12.35;;;2.10;;
53927;SDS011;39837;47.630;18.822;2022-07-23T12:56:35;2.53;;;2.33;;
53927;SDS011;39837;47.630;18.822;2022-07-23T12:59:20;3.83;;;2.13;;
53927;SDS011;39837;47.630;18.822;2022-07-23T13:02:04;4.70;;;2.22;;
53927;SDS011;39837;47.630;18.822;2022-07-23T13:04:52;2.85;;;2.65;;
53927;SDS011;39837;47.630;18.822;2022-07-23T13:07:35;2.72;;;2.53;;
53927;SDS011;39837;47.630;18.822;2022-07-23T13:10:20;2.58;;;1.90;;
53927;SDS011;39837;47.630;18.822;2022-07-23T13:13:08;2.42;;;2.22;;
53927;SDS011;39837;47.630;18.822;2022-07-23T13:15:53;2.08;;;1.98;;
53927;SDS011;39837;47.630;18.822;2022-07-23T13:18:38;1.67;;;1.65;;
53927;SDS011;39837;47.630;18.822;2022-07-23T13:21:22;10.45;;;2.30;;
53927;SDS011;39837;47.630;18.822;2022-07-23T13:24:08;4.32;;;2.10;;
53927;SDS011;39837;47.630;18.822;2022-07-23T13:26:53;7.72;;;2.33;;
53927;SDS011;39837;47.630;18.822;2022-07-23T13:29:36;4.47;;;2.38;;
53927;SDS011;39837;47.630;18.822;2022-07-23T13:32:20;3.83;;;1.63;;
53927;SDS011;39837;47.630;18.822;2022-07-23T13:35:05;2.10;;;2.00;;
53927;SDS011;39837;47.630;18.822;2022-07-23T13:37:49;13.32;;;2.40;;
53927;SDS011;39837;47.630;18.822;2022-07-23T13:40:34;2.85;;;2.25;;
53927;SDS011;39837;47.630;18.822;2022-07-23T13:43:20;3.17;;;2.10;;
53927;SDS011;39837;47.630;18.822;2022-07-23T13:46:06;5.65;;;2.33;;
53927;SDS011;39837;47.630;18.822;2022-07-23T13:48:50;2.25;;;2.15;;
53927;SDS011;39837;47.630;18.822;2022-07-23T13:51:34;5.07;;;2.22;;
53927;SDS011;39837;47.630;18.822;2022-07-23T13:54:18;1.98;;;1.88;;
53927;SDS011;39837;47.630;18.822;2022-07-23T13:57:02;2.17;;;2.08;;
53927;SDS011;39837;47.630;18.822;2022-07-23T14:02:30;3.15;;;2.95;;
53927;SDS011;39837;47.630;18.822;2022-07-23T14:05:14;3.72;;;2.47;;
53927;SDS011;39837;47.630;18.822;2022-07-23T14:07:58;3.88;;;2.85;;
53927;SDS011;39837;47.630;18.822;2022-07-23T14:10:42;2.42;;;2.22;;
53927;SDS011;39837;47.630;18.822;2022-07-23T14:13:26;7.07;;;2.33;;
53927;SDS011;39837;47.630;18.822;2022-07-23T14:16:10;4.28;;;1.98;;
53927;SDS011;39837;47.630;18.822;2022-07-23T14:18:55;2.55;;;2.22;;
53927;SDS011;39837;47.630;18.822;2022-07-23T14:21:39;3.78;;;2.08;;
53927;SDS011;39837;47.630;18.822;2022-07-23T14:24:23;5.32;;;2.10;;
53927;SDS011;39837;47.630;18.822;2022-07-23T14:27:07;2.92;;;1.90;;
53927;SDS011;39837;47.630;18.822;2022-07-23T14:29:52;1.90;;;1.70;;
53927;SDS011;39837;47.630;18.822;2022-07-23T14:32:36;2.03;;;1.92;;
53927;SDS011;39837;47.630;18.822;2022-07-23T14:35:20;2.00;;;1.90;;
53927;SDS011;39837;47.630;18.822;2022-07-23T14:38:04;3.15;;;2.20;;
53927;SDS011;39837;47.630;18.822;2022-07-23T14:40:48;3.53;;;2.47;;
53927;SDS011;39837;47.630;18.822;2022-07-23T14:43:33;2.88;;;2.38;;
53927;SDS011;39837;47.630;18.822;2022-07-23T14:46:17;2.47;;;2.05;;
53927;SDS011;39837;47.630;18.822;2022-07-23T14:49:01;2.13;;;1.88;;
53927;SDS011;39837;47.630;18.822;2022-07-23T14:51:46;1.92;;;1.83;;
53927;SDS011;39837;47.630;18.822;2022-07-23T14:57:14;4.20;;;2.60;;
53927;SDS011;39837;47.630;18.822;2022-07-23T14:59:58;2.72;;;2.50;;
53927;SDS011;39837;47.630;18.822;2022-07-23T15:02:42;9.73;;;2.30;;
53927;SDS011;39837;47.630;18.822;2022-07-23T15:05:27;5.20;;;1.92;;
53927;SDS011;39837;47.630;18.822;2022-07-23T15:08:12;2.20;;;2.10;;
53927;SDS011;39837;47.630;18.822;2022-07-23T15:10:56;2.47;;;2.28;;
53927;SDS011;39837;47.630;18.822;2022-07-23T15:13:40;4.60;;;2.73;;
53927;SDS011;39837;47.630;18.822;2022-07-23T15:16:24;7.95;;;2.65;;
53927;SDS011;39837;47.630;18.822;2022-07-23T15:19:08;3.43;;;2.10;;
53927;SDS011;39837;47.630;18.822;2022-07-23T15:21:52;3.23;;;2.93;;
53927;SDS011;39837;47.630;18.822;2022-07-23T15:24:37;24.50;;;4.20;;
53927;SDS011;39837;47.630;18.822;2022-07-23T15:27:20;19.92;;;4.80;;
53927;SDS011;39837;47.630;18.822;2022-07-23T15:30:04;4.63;;;4.25;;
53927;SDS011;39837;47.630;18.822;2022-07-23T15:35:34;6.90;;;4.25;;
53927;SDS011;39837;47.630;18.822;2022-07-23T15:38:18;6.72;;;4.63;;
53927;SDS011;39837;47.630;18.822;2022-07-23T15:41:02;9.65;;;4.13;;
53927;SDS011;39837;47.630;18.822;2022-07-23T15:46:31;7.15;;;4.00;;
53927;SDS011;39837;47.630;18.822;2022-07-23T15:49:15;5.20;;;4.20;;
53927;SDS011;39837;47.630;18.822;2022-07-23T15:51:59;4.72;;;4.32;;
53927;SDS011;39837;47.630;18.822;2022-07-23T15:54:43;6.40;;;5.37;;
53927;SDS011;39837;47.630;18.822;2022-07-23T15:57:28;13.38;;;6.18;;
53927;SDS011;39837;47.630;18.822;2022-07-23T16:00:12;4.72;;;4.28;;
53927;SDS011;39837;47.630;18.822;2022-07-23T16:02:56;5.30;;;4.80;;
53927;SDS011;39837;47.630;18.822;2022-07-23T16:05:41;9.93;;;5.03;;
53927;SDS011;39837;47.630;18.822;2022-07-23T16:08:25;5.32;;;4.82;;
53927;SDS011;39837;47.630;18.822;2022-07-23T16:11:09;5.05;;;4.65;;
53927;SDS011;39837;47.630;18.822;2022-07-23T16:13:53;5.68;;;4.63;;
53927;SDS011;39837;47.630;18.822;2022-07-23T16:16:37;7.85;;;5.07;;
53927;SDS011;39837;47.630;18.822;2022-07-23T16:19:21;5.87;;;4.77;;
53927;SDS011;39837;47.630;18.822;2022-07-23T16:22:05;5.22;;;4.75;;
53927;SDS011;39837;47.630;18.822;2022-07-23T16:24:49;5.43;;;4.63;;
53927;SDS011;39837;47.630;18.822;2022-07-23T16:27:34;9.25;;;4.50;;
53927;SDS011;39837;47.630;18.822;2022-07-23T16:30:19;4.78;;;4.32;;
53927;SDS011;39837;47.630;18.822;2022-07-23T16:33:03;4.28;;;3.90;;
53927;SDS011;39837;47.630;18.822;2022-07-23T16:35:47;12.95;;;4.43;;
53927;SDS011;39837;47.630;18.822;2022-07-23T16:38:38;6.05;;;3.83;;
53927;SDS011;39837;47.630;18.822;2022-07-23T16:41:22;5.75;;;4.53;;
53927;SDS011;39837;47.630;18.822;2022-07-23T16:44:06;5.72;;;4.55;;
53927;SDS011;39837;47.630;18.822;2022-07-23T16:46:51;4.90;;;4.43;;
53927;SDS011;39837;47.630;18.822;2022-07-23T16:49:35;7.47;;;3.80;;
53927;SDS011;39837;47.630;18.822;2022-07-23T16:52:19;8.90;;;4.82;;
53927;SDS011;39837;47.630;18.822;2022-07-23T16:55:03;5.25;;;4.32;;
53927;SDS011;39837;47.630;18.822;2022-07-23T17:00:32;7.22;;;4.57;;
53927;SDS011;39837;47.630;18.822;2022-07-23T17:03:16;7.72;;;4.50;;
53927;SDS011;39837;47.630;18.822;2022-07-23T17:06:00;4.72;;;4.22;;
53927;SDS011;39837;47.630;18.822;2022-07-23T17:08:44;6.40;;;4.43;;
53927;SDS011;39837;47.630;18.822;2022-07-23T17:11:28;8.00;;;5.03;;
53927;SDS011;39837;47.630;18.822;2022-07-23T17:14:12;6.07;;;4.85;;
53927;SDS011;39837;47.630;18.822;2022-07-23T17:16:57;5.20;;;4.70;;
53927;SDS011;39837;47.630;18.822;2022-07-23T17:19:41;5.43;;;4.93;;